sensor_id;sensor_type;location;lat;lon;timestamp;temperature;humidity
75799;DHT22;65035;44.726;37.764;2023-04-03T00:00:16;20.89;55.47
75799;DHT22;65035;44.726;37.764;2023-04-03T00:01:20;20.88;55.54
75799;DHT22;65035;44.726;37.764;2023-04-03T00:02:23;20.88;55.68
75799;DHT22;65035;44.726;37.764;2023-04-03T00:03:26;20.89;55.52
75799;DHT22;65035;44.726;37.764;2023-04-03T00:04:29;20.89;55.47
75799;DHT22;65035;44.726;37.764;2023-04-03T00:06:22;20.88;55.64
75799;DHT22;65035;44.726;37.764;2023-04-03T00:07:25;20.89;55.52
75799;DHT22;65035;44.726;37.764;2023-04-03T00:08:28;20.90;55.41
75799;DHT22;65035;44.726;37.764;2023-04-03T00:09:33;20.88;55.46
75799;DHT22;65035;44.726;37.764;2023-04-03T00:10:37;20.90;55.64
75799;DHT22;65035;44.726;37.764;2023-04-03T00:11:40;20.90;55.45
75799;DHT22;65035;44.726;37.764;2023-04-03T00:12:43;20.91;56.29
75799;DHT22;65035;44.726;37.764;2023-04-03T00:13:46;20.89;55.57
75799;DHT22;65035;44.726;37.764;2023-04-03T00:14:49;20.90;55.37
75799;DHT22;65035;44.726;37.764;2023-04-03T00:15:53;20.90;55.92
75799;DHT22;65035;44.726;37.764;2023-04-03T00:18:32;20.91;55.55
75799;DHT22;65035;44.726;37.764;2023-04-03T00:19:35;20.91;55.37
75799;DHT22;65035;44.726;37.764;2023-04-03T00:21:26;20.89;56.07
75799;DHT22;65035;44.726;37.764;2023-04-03T00:23:21;20.89;55.45
75799;DHT22;65035;44.726;37.764;2023-04-03T00:24:26;20.91;55.38
75799;DHT22;65035;44.726;37.764;2023-04-03T00:25:29;20.90;55.59
75799;DHT22;65035;44.726;37.764;2023-04-03T00:28:08;20.89;55.35
75799;DHT22;65035;44.726;37.764;2023-04-03T00:30:55;20.89;55.36
75799;DHT22;65035;44.726;37.764;2023-04-03T00:31:58;20.90;55.36
75799;DHT22;65035;44.726;37.764;2023-04-03T00:33:02;20.90;55.46
75799;DHT22;65035;44.726;37.764;2023-04-03T00:34:05;20.90;55.46
75799;DHT22;65035;44.726;37.764;2023-04-03T00:35:08;20.89;55.39
75799;DHT22;65035;44.726;37.764;2023-04-03T00:36:12;20.90;55.35
75799;DHT22;65035;44.726;37.764;2023-04-03T00:37:16;20.90;55.74
75799;DHT22;65035;44.726;37.764;2023-04-03T00:38:19;20.90;55.44
75799;DHT22;65035;44.726;37.764;2023-04-03T00:39:22;20.89;55.46
75799;DHT22;65035;44.726;37.764;2023-04-03T00:40:27;20.90;55.72
75799;DHT22;65035;44.726;37.764;2023-04-03T00:41:30;20.90;55.38
75799;DHT22;65035;44.726;37.764;2023-04-03T00:43:24;20.90;55.28
75799;DHT22;65035;44.726;37.764;2023-04-03T00:45:48;20.92;55.33
75799;DHT22;65035;44.726;37.764;2023-04-03T00:46:52;20.91;55.83
75799;DHT22;65035;44.726;37.764;2023-04-03T00:47:55;20.90;55.36
75799;DHT22;65035;44.726;37.764;2023-04-03T00:48:59;20.91;55.34
75799;DHT22;65035;44.726;37.764;2023-04-03T00:50:03;20.91;55.45
75799;DHT22;65035;44.726;37.764;2023-04-03T00:51:30;20.91;55.30
75799;DHT22;65035;44.726;37.764;2023-04-03T00:52:31;20.90;55.29
75799;DHT22;65035;44.726;37.764;2023-04-03T00:53:42;20.91;55.41
75799;DHT22;65035;44.726;37.764;2023-04-03T00:54:49;20.90;55.40
75799;DHT22;65035;44.726;37.764;2023-04-03T00:55:54;20.91;55.45
75799;DHT22;65035;44.726;37.764;2023-04-03T00:56:58;20.91;55.33
75799;DHT22;65035;44.726;37.764;2023-04-03T00:58:57;20.90;55.42
75799;DHT22;65035;44.726;37.764;2023-04-03T01:00:09;20.90;55.31
75799;DHT22;65035;44.726;37.764;2023-04-03T01:01:16;20.90;55.41
75799;DHT22;65035;44.726;37.764;2023-04-03T01:03:59;20.91;55.30
75799;DHT22;65035;44.726;37.764;2023-04-03T01:05:04;20.91;55.29
75799;DHT22;65035;44.726;37.764;2023-04-03T01:06:09;20.90;55.28
75799;DHT22;65035;44.726;37.764;2023-04-03T01:07:20;20.91;55.34
75799;DHT22;65035;44.726;37.764;2023-04-03T01:08:25;20.91;55.29
75799;DHT22;65035;44.726;37.764;2023-04-03T01:09:29;20.91;55.26
75799;DHT22;65035;44.726;37.764;2023-04-03T01:11:28;20.91;55.26
75799;DHT22;65035;44.726;37.764;2023-04-03T01:12:37;20.90;55.33
75799;DHT22;65035;44.726;37.764;2023-04-03T01:13:40;20.91;55.43
75799;DHT22;65035;44.726;37.764;2023-04-03T01:14:44;20.91;55.24
75799;DHT22;65035;44.726;37.764;2023-04-03T01:15:49;20.92;55.21
75799;DHT22;65035;44.726;37.764;2023-04-03T01:16:54;20.91;55.20
75799;DHT22;65035;44.726;37.764;2023-04-03T01:17:59;20.92;55.36
75799;DHT22;65035;44.726;37.764;2023-04-03T01:22:19;20.93;55.23
75799;DHT22;65035;44.726;37.764;2023-04-03T01:25:05;20.92;55.19
75799;DHT22;65035;44.726;37.764;2023-04-03T01:28:47;20.92;55.19
75799;DHT22;65035;44.726;37.764;2023-04-03T01:29:50;20.91;55.33
75799;DHT22;65035;44.726;37.764;2023-04-03T01:31:44;20.92;55.39
75799;DHT22;65035;44.726;37.764;2023-04-03T01:32:47;20.91;55.65
75799;DHT22;65035;44.726;37.764;2023-04-03T01:33:51;20.90;55.69
75799;DHT22;65035;44.726;37.764;2023-04-03T01:34:54;20.90;55.69
75799;DHT22;65035;44.726;37.764;2023-04-03T01:35:57;20.90;55.53
75799;DHT22;65035;44.726;37.764;2023-04-03T01:37:01;20.88;55.46
75799;DHT22;65035;44.726;37.764;2023-04-03T01:38:04;20.89;55.26
75799;DHT22;65035;44.726;37.764;2023-04-03T01:39:07;20.88;55.06
75799;DHT22;65035;44.726;37.764;2023-04-03T01:40:10;20.87;55.16
75799;DHT22;65035;44.726;37.764;2023-04-03T01:41:14;20.86;55.13
75799;DHT22;65035;44.726;37.764;2023-04-03T01:42:19;20.85;55.13
75799;DHT22;65035;44.726;37.764;2023-04-03T01:43:22;20.85;55.05
75799;DHT22;65035;44.726;37.764;2023-04-03T01:45:13;20.85;55.11
75799;DHT22;65035;44.726;37.764;2023-04-03T01:46:17;20.83;55.25
75799;DHT22;65035;44.726;37.764;2023-04-03T01:47:21;20.83;55.16
75799;DHT22;65035;44.726;37.764;2023-04-03T01:48:25;20.81;55.16
75799;DHT22;65035;44.726;37.764;2023-04-03T01:50:17;20.81;55.12
75799;DHT22;65035;44.726;37.764;2023-04-03T01:52:08;20.81;55.15
75799;DHT22;65035;44.726;37.764;2023-04-03T01:53:12;20.81;55.12
75799;DHT22;65035;44.726;37.764;2023-04-03T01:55:52;20.79;55.25
75799;DHT22;65035;44.726;37.764;2023-04-03T01:59:34;20.78;55.19
75799;DHT22;65035;44.726;37.764;2023-04-03T02:01:33;20.77;55.20
75799;DHT22;65035;44.726;37.764;2023-04-03T02:02:36;20.76;55.21
75799;DHT22;65035;44.726;37.764;2023-04-03T02:03:39;20.77;55.19
75799;DHT22;65035;44.726;37.764;2023-04-03T02:04:43;20.76;55.17
75799;DHT22;65035;44.726;37.764;2023-04-03T02:05:46;20.76;55.27
75799;DHT22;65035;44.726;37.764;2023-04-03T02:06:49;20.76;55.20
75799;DHT22;65035;44.726;37.764;2023-04-03T02:08:40;20.76;55.31
75799;DHT22;65035;44.726;37.764;2023-04-03T02:09:44;20.76;55.22
75799;DHT22;65035;44.726;37.764;2023-04-03T02:10:48;20.75;55.20
75799;DHT22;65035;44.726;37.764;2023-04-03T02:11:52;20.76;55.23
75799;DHT22;65035;44.726;37.764;2023-04-03T02:12:56;20.76;55.17
75799;DHT22;65035;44.726;37.764;2023-04-03T02:14:01;20.76;55.29
75799;DHT22;65035;44.726;37.764;2023-04-03T02:15:04;20.75;55.26
75799;DHT22;65035;44.726;37.764;2023-04-03T02:16:09;20.75;55.33
75799;DHT22;65035;44.726;37.764;2023-04-03T02:17:13;20.76;55.26
75799;DHT22;65035;44.726;37.764;2023-04-03T02:19:04;20.75;55.21
75799;DHT22;65035;44.726;37.764;2023-04-03T02:21:58;20.75;55.32
75799;DHT22;65035;44.726;37.764;2023-04-03T02:23:01;20.75;55.23
75799;DHT22;65035;44.726;37.764;2023-04-03T02:24:05;20.75;55.20
75799;DHT22;65035;44.726;37.764;2023-04-03T02:25:09;20.75;55.32
75799;DHT22;65035;44.726;37.764;2023-04-03T02:27:56;20.75;55.24
75799;DHT22;65035;44.726;37.764;2023-04-03T02:28:59;20.74;55.21
75799;DHT22;65035;44.726;37.764;2023-04-03T02:30:03;20.74;55.16
75799;DHT22;65035;44.726;37.764;2023-04-03T02:32:17;20.73;55.26
75799;DHT22;65035;44.726;37.764;2023-04-03T02:34:09;20.72;55.21
75799;DHT22;65035;44.726;37.764;2023-04-03T02:36:09;20.73;55.16
75799;DHT22;65035;44.726;37.764;2023-04-03T02:37:15;20.72;55.28
75799;DHT22;65035;44.726;37.764;2023-04-03T02:38:20;20.72;55.23
75799;DHT22;65035;44.726;37.764;2023-04-03T02:39:24;20.72;55.30
75799;DHT22;65035;44.726;37.764;2023-04-03T02:40:28;20.73;55.40
75799;DHT22;65035;44.726;37.764;2023-04-03T02:41:31;20.72;55.34
75799;DHT22;65035;44.726;37.764;2023-04-03T02:42:41;20.73;55.22
75799;DHT22;65035;44.726;37.764;2023-04-03T02:43:44;20.72;55.33
75799;DHT22;65035;44.726;37.764;2023-04-03T02:44:47;20.72;55.12
75799;DHT22;65035;44.726;37.764;2023-04-03T02:45:50;20.72;55.16
75799;DHT22;65035;44.726;37.764;2023-04-03T02:46:53;20.72;55.27
75799;DHT22;65035;44.726;37.764;2023-04-03T02:47:58;20.72;55.15
75799;DHT22;65035;44.726;37.764;2023-04-03T02:49:01;20.73;55.20
75799;DHT22;65035;44.726;37.764;2023-04-03T02:50:04;20.72;55.20
75799;DHT22;65035;44.726;37.764;2023-04-03T02:52:04;20.72;55.10
75799;DHT22;65035;44.726;37.764;2023-04-03T02:53:07;20.72;55.13
75799;DHT22;65035;44.726;37.764;2023-04-03T02:54:11;20.72;55.14
75799;DHT22;65035;44.726;37.764;2023-04-03T02:55:17;20.73;55.13
75799;DHT22;65035;44.726;37.764;2023-04-03T02:56:23;20.73;55.18
75799;DHT22;65035;44.726;37.764;2023-04-03T02:57:26;20.73;55.19
75799;DHT22;65035;44.726;37.764;2023-04-03T02:58:29;20.73;55.23
75799;DHT22;65035;44.726;37.764;2023-04-03T02:59:37;20.72;55.26
75799;DHT22;65035;44.726;37.764;2023-04-03T03:00:45;20.72;55.14
75799;DHT22;65035;44.726;37.764;2023-04-03T03:01:48;20.73;55.13
75799;DHT22;65035;44.726;37.764;2023-04-03T03:02:50;20.72;55.16
75799;DHT22;65035;44.726;37.764;2023-04-03T03:03:54;20.74;55.13
75799;DHT22;65035;44.726;37.764;2023-04-03T03:04:57;20.73;55.13
75799;DHT22;65035;44.726;37.764;2023-04-03T03:06:10;20.73;55.22
75799;DHT22;65035;44.726;37.764;2023-04-03T03:07:14;20.73;55.10
75799;DHT22;65035;44.726;37.764;2023-04-03T03:08:17;20.73;55.09
75799;DHT22;65035;44.726;37.764;2023-04-03T03:09:22;20.73;55.11
75799;DHT22;65035;44.726;37.764;2023-04-03T03:10:25;20.74;55.10
75799;DHT22;65035;44.726;37.764;2023-04-03T03:11:28;20.73;55.12
75799;DHT22;65035;44.726;37.764;2023-04-03T03:12:31;20.73;55.07
75799;DHT22;65035;44.726;37.764;2023-04-03T03:13:35;20.73;55.09
75799;DHT22;65035;44.726;37.764;2023-04-03T03:14:38;20.73;55.09
75799;DHT22;65035;44.726;37.764;2023-04-03T03:15:41;20.73;55.16
75799;DHT22;65035;44.726;37.764;2023-04-03T03:16:45;20.74;55.11
75799;DHT22;65035;44.726;37.764;2023-04-03T03:17:48;20.73;55.18
75799;DHT22;65035;44.726;37.764;2023-04-03T03:18:51;20.73;55.18
75799;DHT22;65035;44.726;37.764;2023-04-03T03:19:54;20.73;55.13
75799;DHT22;65035;44.726;37.764;2023-04-03T03:20:59;20.73;54.96
75799;DHT22;65035;44.726;37.764;2023-04-03T03:22:02;20.74;55.07
75799;DHT22;65035;44.726;37.764;2023-04-03T03:23:05;20.73;55.04
75799;DHT22;65035;44.726;37.764;2023-04-03T03:24:08;20.72;55.21
75799;DHT22;65035;44.726;37.764;2023-04-03T03:25:11;20.73;55.09
75799;DHT22;65035;44.726;37.764;2023-04-03T03:26:14;20.72;55.13
75799;DHT22;65035;44.726;37.764;2023-04-03T03:27:17;20.72;55.20
75799;DHT22;65035;44.726;37.764;2023-04-03T03:28:20;20.71;55.13
75799;DHT22;65035;44.726;37.764;2023-04-03T03:29:24;20.71;54.89
75799;DHT22;65035;44.726;37.764;2023-04-03T03:30:26;20.72;54.97
75799;DHT22;65035;44.726;37.764;2023-04-03T03:31:29;20.70;55.00
75799;DHT22;65035;44.726;37.764;2023-04-03T03:32:32;20.72;54.80
75799;DHT22;65035;44.726;37.764;2023-04-03T03:33:36;20.72;54.92
75799;DHT22;65035;44.726;37.764;2023-04-03T03:34:39;20.70;54.99
75799;DHT22;65035;44.726;37.764;2023-04-03T03:35:43;20.71;54.88
75799;DHT22;65035;44.726;37.764;2023-04-03T03:36:48;20.70;54.74
75799;DHT22;65035;44.726;37.764;2023-04-03T03:37:51;20.71;54.83
75799;DHT22;65035;44.726;37.764;2023-04-03T03:38:54;20.70;54.74
75799;DHT22;65035;44.726;37.764;2023-04-03T03:39:58;20.70;54.81
75799;DHT22;65035;44.726;37.764;2023-04-03T03:41:01;20.70;54.87
75799;DHT22;65035;44.726;37.764;2023-04-03T03:42:05;20.69;54.97
75799;DHT22;65035;44.726;37.764;2023-04-03T03:43:08;20.69;54.82
75799;DHT22;65035;44.726;37.764;2023-04-03T03:44:11;20.70;54.95
75799;DHT22;65035;44.726;37.764;2023-04-03T03:45:14;20.69;54.78
75799;DHT22;65035;44.726;37.764;2023-04-03T03:46:17;20.69;54.76
75799;DHT22;65035;44.726;37.764;2023-04-03T03:47:20;20.69;54.85
75799;DHT22;65035;44.726;37.764;2023-04-03T03:48:23;20.69;55.04
75799;DHT22;65035;44.726;37.764;2023-04-03T03:49:26;20.69;54.81
75799;DHT22;65035;44.726;37.764;2023-04-03T03:50:30;20.68;54.75
75799;DHT22;65035;44.726;37.764;2023-04-03T03:52:20;20.69;54.62
75799;DHT22;65035;44.726;37.764;2023-04-03T03:53:23;20.66;54.56
75799;DHT22;65035;44.726;37.764;2023-04-03T03:54:30;20.69;54.58
75799;DHT22;65035;44.726;37.764;2023-04-03T03:55:33;20.69;54.76
75799;DHT22;65035;44.726;37.764;2023-04-03T03:56:36;20.68;54.85
75799;DHT22;65035;44.726;37.764;2023-04-03T03:57:39;20.65;54.71
75799;DHT22;65035;44.726;37.764;2023-04-03T03:58:42;20.68;54.68
75799;DHT22;65035;44.726;37.764;2023-04-03T03:59:45;20.66;55.04
75799;DHT22;65035;44.726;37.764;2023-04-03T04:00:51;20.66;55.02
75799;DHT22;65035;44.726;37.764;2023-04-03T04:01:54;20.66;54.94
75799;DHT22;65035;44.726;37.764;2023-04-03T04:02:57;20.68;55.22
75799;DHT22;65035;44.726;37.764;2023-04-03T04:04:01;20.68;55.05
75799;DHT22;65035;44.726;37.764;2023-04-03T04:05:06;20.66;54.82
75799;DHT22;65035;44.726;37.764;2023-04-03T04:06:09;20.68;54.78
75799;DHT22;65035;44.726;37.764;2023-04-03T04:08:00;20.68;54.86
75799;DHT22;65035;44.726;37.764;2023-04-03T04:09:03;20.66;54.88
75799;DHT22;65035;44.726;37.764;2023-04-03T04:10:07;20.68;54.86
75799;DHT22;65035;44.726;37.764;2023-04-03T04:11:10;20.68;54.75
75799;DHT22;65035;44.726;37.764;2023-04-03T04:12:14;20.66;55.00
75799;DHT22;65035;44.726;37.764;2023-04-03T04:13:17;20.68;54.78
75799;DHT22;65035;44.726;37.764;2023-04-03T04:14:20;20.68;55.02
75799;DHT22;65035;44.726;37.764;2023-04-03T04:15:24;20.66;54.94
75799;DHT22;65035;44.726;37.764;2023-04-03T04:16:29;20.68;55.10
75799;DHT22;65035;44.726;37.764;2023-04-03T04:17:36;20.68;55.20
75799;DHT22;65035;44.726;37.764;2023-04-03T04:18:42;20.68;55.02
75799;DHT22;65035;44.726;37.764;2023-04-03T04:19:45;20.70;55.09
75799;DHT22;65035;44.726;37.764;2023-04-03T04:20:48;20.69;54.87
75799;DHT22;65035;44.726;37.764;2023-04-03T04:21:52;20.70;54.87
75799;DHT22;65035;44.726;37.764;2023-04-03T04:22:55;20.71;55.41
75799;DHT22;65035;44.726;37.764;2023-04-03T04:23:59;20.71;55.23
75799;DHT22;65035;44.726;37.764;2023-04-03T04:25:02;20.71;54.85
75799;DHT22;65035;44.726;37.764;2023-04-03T04:26:05;20.71;54.64
75799;DHT22;65035;44.726;37.764;2023-04-03T04:27:10;20.72;54.85
75799;DHT22;65035;44.726;37.764;2023-04-03T04:28:14;20.71;55.01
75799;DHT22;65035;44.726;37.764;2023-04-03T04:29:18;20.71;54.84
75799;DHT22;65035;44.726;37.764;2023-04-03T04:30:23;20.71;55.04
75799;DHT22;65035;44.726;37.764;2023-04-03T04:31:26;20.71;55.04
75799;DHT22;65035;44.726;37.764;2023-04-03T04:32:30;20.71;55.23
75799;DHT22;65035;44.726;37.764;2023-04-03T04:33:33;20.72;55.04
75799;DHT22;65035;44.726;37.764;2023-04-03T04:34:38;20.72;55.11
75799;DHT22;65035;44.726;37.764;2023-04-03T04:35:42;20.73;55.29
75799;DHT22;65035;44.726;37.764;2023-04-03T04:36:46;20.74;55.41
75799;DHT22;65035;44.726;37.764;2023-04-03T04:37:49;20.73;55.50
75799;DHT22;65035;44.726;37.764;2023-04-03T04:38:53;20.74;55.47
75799;DHT22;65035;44.726;37.764;2023-04-03T04:39:58;20.73;55.53
75799;DHT22;65035;44.726;37.764;2023-04-03T04:41:01;20.75;55.77
75799;DHT22;65035;44.726;37.764;2023-04-03T04:42:04;20.76;55.59
75799;DHT22;65035;44.726;37.764;2023-04-03T04:43:07;20.76;55.44
75799;DHT22;65035;44.726;37.764;2023-04-03T04:44:10;20.76;55.38
75799;DHT22;65035;44.726;37.764;2023-04-03T04:45:14;20.78;55.38
75799;DHT22;65035;44.726;37.764;2023-04-03T04:46:19;20.78;55.29
75799;DHT22;65035;44.726;37.764;2023-04-03T04:47:28;20.79;55.39
75799;DHT22;65035;44.726;37.764;2023-04-03T04:48:32;20.79;55.25
75799;DHT22;65035;44.726;37.764;2023-04-03T04:49:35;20.81;55.22
75799;DHT22;65035;44.726;37.764;2023-04-03T04:50:39;20.81;55.17
75799;DHT22;65035;44.726;37.764;2023-04-03T04:51:42;20.83;55.44
75799;DHT22;65035;44.726;37.764;2023-04-03T04:52:51;20.84;55.26
75799;DHT22;65035;44.726;37.764;2023-04-03T04:54:42;20.85;55.09
75799;DHT22;65035;44.726;37.764;2023-04-03T04:55:45;20.86;55.04
75799;DHT22;65035;44.726;37.764;2023-04-03T04:56:48;20.86;55.07
75799;DHT22;65035;44.726;37.764;2023-04-03T04:57:51;20.87;54.96
75799;DHT22;65035;44.726;37.764;2023-04-03T04:58:55;20.87;54.93
75799;DHT22;65035;44.726;37.764;2023-04-03T04:59:59;20.88;55.05
75799;DHT22;65035;44.726;37.764;2023-04-03T05:01:06;20.88;54.88
75799;DHT22;65035;44.726;37.764;2023-04-03T05:02:14;20.89;54.91
75799;DHT22;65035;44.726;37.764;2023-04-03T05:03:18;20.89;54.87
75799;DHT22;65035;44.726;37.764;2023-04-03T05:04:21;20.90;54.81
75799;DHT22;65035;44.726;37.764;2023-04-03T05:05:29;20.90;54.84
75799;DHT22;65035;44.726;37.764;2023-04-03T05:06:32;20.89;54.78
75799;DHT22;65035;44.726;37.764;2023-04-03T05:07:36;20.90;54.95
75799;DHT22;65035;44.726;37.764;2023-04-03T05:08:39;20.90;54.74
75799;DHT22;65035;44.726;37.764;2023-04-03T05:09:42;20.92;54.87
75799;DHT22;65035;44.726;37.764;2023-04-03T05:10:46;20.91;54.73
75799;DHT22;65035;44.726;37.764;2023-04-03T05:11:50;20.92;54.70
75799;DHT22;65035;44.726;37.764;2023-04-03T05:12:57;20.92;54.67
75799;DHT22;65035;44.726;37.764;2023-04-03T05:14:00;20.92;54.69
75799;DHT22;65035;44.726;37.764;2023-04-03T05:15:04;20.93;54.99
75799;DHT22;65035;44.726;37.764;2023-04-03T05:16:08;20.93;54.65
75799;DHT22;65035;44.726;37.764;2023-04-03T05:17:11;20.93;54.62
75799;DHT22;65035;44.726;37.764;2023-04-03T05:18:17;20.93;54.60
75799;DHT22;65035;44.726;37.764;2023-04-03T05:19:20;20.92;54.81
75799;DHT22;65035;44.726;37.764;2023-04-03T05:20:23;20.93;54.59
75799;DHT22;65035;44.726;37.764;2023-04-03T05:21:27;20.93;54.77
75799;DHT22;65035;44.726;37.764;2023-04-03T05:22:38;20.93;54.59
75799;DHT22;65035;44.726;37.764;2023-04-03T05:24:54;20.94;54.64
75799;DHT22;65035;44.726;37.764;2023-04-03T05:25:58;20.94;54.52
75799;DHT22;65035;44.726;37.764;2023-04-03T05:27:03;20.95;54.55
75799;DHT22;65035;44.726;37.764;2023-04-03T05:28:09;20.95;54.58
75799;DHT22;65035;44.726;37.764;2023-04-03T05:29:12;20.95;54.48
75799;DHT22;65035;44.726;37.764;2023-04-03T05:30:16;20.95;54.49
75799;DHT22;65035;44.726;37.764;2023-04-03T05:31:20;20.96;54.54
75799;DHT22;65035;44.726;37.764;2023-04-03T05:32:24;20.96;54.48
75799;DHT22;65035;44.726;37.764;2023-04-03T05:33:41;20.95;54.68
75799;DHT22;65035;44.726;37.764;2023-04-03T05:34:47;20.95;54.49
75799;DHT22;65035;44.726;37.764;2023-04-03T05:35:50;20.96;54.49
75799;DHT22;65035;44.726;37.764;2023-04-03T05:36:58;20.96;54.47
75799;DHT22;65035;44.726;37.764;2023-04-03T05:38:02;20.95;54.42
75799;DHT22;65035;44.726;37.764;2023-04-03T05:39:06;20.96;54.48
75799;DHT22;65035;44.726;37.764;2023-04-03T05:40:12;20.98;54.47
75799;DHT22;65035;44.726;37.764;2023-04-03T05:41:18;20.98;54.39
75799;DHT22;65035;44.726;37.764;2023-04-03T05:42:21;20.99;54.36
75799;DHT22;65035;44.726;37.764;2023-04-03T05:43:24;20.99;54.42
75799;DHT22;65035;44.726;37.764;2023-04-03T05:44:28;20.99;54.36
75799;DHT22;65035;44.726;37.764;2023-04-03T05:45:31;20.99;54.42
75799;DHT22;65035;44.726;37.764;2023-04-03T05:46:34;20.96;54.35
75799;DHT22;65035;44.726;37.764;2023-04-03T05:47:40;20.99;54.31
75799;DHT22;65035;44.726;37.764;2023-04-03T05:49:31;21.00;54.32
75799;DHT22;65035;44.726;37.764;2023-04-03T05:50:35;20.99;54.28
75799;DHT22;65035;44.726;37.764;2023-04-03T05:51:38;21.00;54.30
75799;DHT22;65035;44.726;37.764;2023-04-03T05:52:52;21.00;54.29
75799;DHT22;65035;44.726;37.764;2023-04-03T05:54:08;21.01;54.34
75799;DHT22;65035;44.726;37.764;2023-04-03T05:55:12;21.01;54.30
75799;DHT22;65035;44.726;37.764;2023-04-03T05:56:15;21.01;54.26
75799;DHT22;65035;44.726;37.764;2023-04-03T05:57:18;21.01;54.24
75799;DHT22;65035;44.726;37.764;2023-04-03T05:58:21;21.01;54.26
75799;DHT22;65035;44.726;37.764;2023-04-03T05:59:26;21.01;54.23
75799;DHT22;65035;44.726;37.764;2023-04-03T06:00:31;21.02;54.22
75799;DHT22;65035;44.726;37.764;2023-04-03T06:01:37;21.01;54.21
75799;DHT22;65035;44.726;37.764;2023-04-03T06:02:40;21.02;54.27
75799;DHT22;65035;44.726;37.764;2023-04-03T06:03:49;21.02;54.34
75799;DHT22;65035;44.726;37.764;2023-04-03T06:04:53;21.02;54.19
75799;DHT22;65035;44.726;37.764;2023-04-03T06:05:55;21.03;54.17
75799;DHT22;65035;44.726;37.764;2023-04-03T06:06:59;21.03;54.16
75799;DHT22;65035;44.726;37.764;2023-04-03T06:08:02;21.03;54.18
75799;DHT22;65035;44.726;37.764;2023-04-03T06:09:06;21.03;54.18
75799;DHT22;65035;44.726;37.764;2023-04-03T06:10:11;21.03;54.17
75799;DHT22;65035;44.726;37.764;2023-04-03T06:11:14;21.03;54.17
75799;DHT22;65035;44.726;37.764;2023-04-03T06:12:17;21.03;54.16
75799;DHT22;65035;44.726;37.764;2023-04-03T06:13:20;21.04;54.11
75799;DHT22;65035;44.726;37.764;2023-04-03T06:14:26;21.04;54.17
75799;DHT22;65035;44.726;37.764;2023-04-03T06:15:29;21.05;54.10
75799;DHT22;65035;44.726;37.764;2023-04-03T06:16:32;21.04;54.10
75799;DHT22;65035;44.726;37.764;2023-04-03T06:17:36;21.05;54.14
75799;DHT22;65035;44.726;37.764;2023-04-03T06:18:39;21.05;54.12
75799;DHT22;65035;44.726;37.764;2023-04-03T06:19:44;21.05;54.08
75799;DHT22;65035;44.726;37.764;2023-04-03T06:20:47;21.05;54.07
75799;DHT22;65035;44.726;37.764;2023-04-03T06:21:50;21.05;54.05
75799;DHT22;65035;44.726;37.764;2023-04-03T06:22:54;21.05;54.04
75799;DHT22;65035;44.726;37.764;2023-04-03T06:23:57;21.06;54.10
75799;DHT22;65035;44.726;37.764;2023-04-03T06:25:01;21.06;54.03
75799;DHT22;65035;44.726;37.764;2023-04-03T06:26:04;21.07;54.09
75799;DHT22;65035;44.726;37.764;2023-04-03T06:27:10;21.07;54.03
75799;DHT22;65035;44.726;37.764;2023-04-03T06:28:13;21.06;54.02
75799;DHT22;65035;44.726;37.764;2023-04-03T06:29:17;21.05;54.00
75799;DHT22;65035;44.726;37.764;2023-04-03T06:30:20;21.07;54.03
75799;DHT22;65035;44.726;37.764;2023-04-03T06:31:23;21.07;54.01
75799;DHT22;65035;44.726;37.764;2023-04-03T06:32:26;21.07;54.03
75799;DHT22;65035;44.726;37.764;2023-04-03T06:33:29;21.07;54.08
75799;DHT22;65035;44.726;37.764;2023-04-03T06:34:32;21.07;54.00
75799;DHT22;65035;44.726;37.764;2023-04-03T06:35:36;21.08;53.97
75799;DHT22;65035;44.726;37.764;2023-04-03T06:36:41;21.07;53.98
75799;DHT22;65035;44.726;37.764;2023-04-03T06:37:44;21.07;54.01
75799;DHT22;65035;44.726;37.764;2023-04-03T06:38:48;21.07;53.97
75799;DHT22;65035;44.726;37.764;2023-04-03T06:39:51;21.09;53.97
75799;DHT22;65035;44.726;37.764;2023-04-03T06:40:54;21.09;53.94
75799;DHT22;65035;44.726;37.764;2023-04-03T06:41:58;21.09;53.94
75799;DHT22;65035;44.726;37.764;2023-04-03T06:43:11;21.08;53.93
75799;DHT22;65035;44.726;37.764;2023-04-03T06:44:14;21.08;53.94
75799;DHT22;65035;44.726;37.764;2023-04-03T06:45:18;21.10;53.93
75799;DHT22;65035;44.726;37.764;2023-04-03T06:46:22;21.09;53.90
75799;DHT22;65035;44.726;37.764;2023-04-03T06:47:25;21.09;53.92
75799;DHT22;65035;44.726;37.764;2023-04-03T06:48:28;21.10;54.01
75799;DHT22;65035;44.726;37.764;2023-04-03T06:49:31;21.11;54.06
75799;DHT22;65035;44.726;37.764;2023-04-03T06:50:35;21.14;54.15
75799;DHT22;65035;44.726;37.764;2023-04-03T06:51:38;21.13;54.60
75799;DHT22;65035;44.726;37.764;2023-04-03T06:52:41;21.14;54.83
75799;DHT22;65035;44.726;37.764;2023-04-03T06:53:44;21.15;54.82
75799;DHT22;65035;44.726;37.764;2023-04-03T06:54:48;21.15;54.81
75799;DHT22;65035;44.726;37.764;2023-04-03T06:55:51;21.17;54.73
75799;DHT22;65035;44.726;37.764;2023-04-03T06:56:54;21.18;54.65
75799;DHT22;65035;44.726;37.764;2023-04-03T06:57:57;21.18;54.64
75799;DHT22;65035;44.726;37.764;2023-04-03T06:59:00;21.19;54.50
75799;DHT22;65035;44.726;37.764;2023-04-03T07:00:04;21.19;54.31
75799;DHT22;65035;44.726;37.764;2023-04-03T07:01:08;21.20;54.28
75799;DHT22;65035;44.726;37.764;2023-04-03T07:02:13;21.20;54.20
75799;DHT22;65035;44.726;37.764;2023-04-03T07:03:16;21.19;54.15
75799;DHT22;65035;44.726;37.764;2023-04-03T07:04:19;21.20;54.04
75799;DHT22;65035;44.726;37.764;2023-04-03T07:05:23;21.19;53.99
75799;DHT22;65035;44.726;37.764;2023-04-03T07:06:27;21.20;53.94
75799;DHT22;65035;44.726;37.764;2023-04-03T07:07:32;21.19;53.96
75799;DHT22;65035;44.726;37.764;2023-04-03T07:08:36;21.20;53.91
75799;DHT22;65035;44.726;37.764;2023-04-03T07:09:39;21.19;53.86
75799;DHT22;65035;44.726;37.764;2023-04-03T07:10:43;21.20;53.83
75799;DHT22;65035;44.726;37.764;2023-04-03T07:11:46;21.20;53.83
75799;DHT22;65035;44.726;37.764;2023-04-03T07:12:51;21.20;53.82
75799;DHT22;65035;44.726;37.764;2023-04-03T07:13:55;21.20;53.80
75799;DHT22;65035;44.726;37.764;2023-04-03T07:15:01;21.19;53.83
75799;DHT22;65035;44.726;37.764;2023-04-03T07:16:04;21.20;53.75
75799;DHT22;65035;44.726;37.764;2023-04-03T07:17:09;21.18;53.75
75799;DHT22;65035;44.726;37.764;2023-04-03T07:18:12;21.19;53.75
75799;DHT22;65035;44.726;37.764;2023-04-03T07:19:15;21.18;53.70
75799;DHT22;65035;44.726;37.764;2023-04-03T07:20:19;21.17;53.69